sensor_id;sensor_type;location;lat;lon;timestamp;P1;durP1;ratioP1;P2;durP2;ratioP2
59127;SDS011;44912;52.754;5.994;2023-04-26T00:01:21;6.93;;;2.15;;
59127;SDS011;44912;52.754;5.994;2023-04-26T00:03:47;8.93;;;2.00;;
59127;SDS011;44912;52.754;5.994;2023-04-26T00:06:13;9.57;;;2.30;;
59127;SDS011;44912;52.754;5.994;2023-04-26T00:08:40;11.40;;;2.40;;
59127;SDS011;44912;52.754;5.994;2023-04-26T00:11:07;8.85;;;2.30;;
59127;SDS011;44912;52.754;5.994;2023-04-26T00:13:32;6.60;;;2.10;;
59127;SDS011;44912;52.754;5.994;2023-04-26T00:15:58;6.28;;;2.17;;
59127;SDS011;44912;52.754;5.994;2023-04-26T00:18:23;8.02;;;2.20;;
59127;SDS011;44912;52.754;5.994;2023-04-26T00:20:49;7.07;;;1.98;;
59127;SDS011;44912;52.754;5.994;2023-04-26T00:23:15;5.97;;;2.10;;
59127;SDS011;44912;52.754;5.994;2023-04-26T00:25:41;8.20;;;2.13;;
59127;SDS011;44912;52.754;5.994;2023-04-26T00:28:06;5.78;;;1.70;;
59127;SDS011;44912;52.754;5.994;2023-04-26T00:30:33;8.70;;;2.08;;
59127;SDS011;44912;52.754;5.994;2023-04-26T00:33:01;9.02;;;2.00;;
59127;SDS011;44912;52.754;5.994;2023-04-26T00:35:27;8.00;;;2.10;;
59127;SDS011;44912;52.754;5.994;2023-04-26T00:37:53;6.68;;;1.52;;
59127;SDS011;44912;52.754;5.994;2023-04-26T00:40:18;4.93;;;1.65;;
59127;SDS011;44912;52.754;5.994;2023-04-26T00:42:44;7.03;;;2.00;;
59127;SDS011;44912;52.754;5.994;2023-04-26T00:45:10;5.75;;;1.63;;
59127;SDS011;44912;52.754;5.994;2023-04-26T00:47:35;6.68;;;2.00;;
59127;SDS011;44912;52.754;5.994;2023-04-26T00:50:01;5.40;;;1.67;;
59127;SDS011;44912;52.754;5.994;2023-04-26T00:52:28;7.85;;;1.88;;
59127;SDS011;44912;52.754;5.994;2023-04-26T00:54:55;6.55;;;1.80;;
59127;SDS011;44912;52.754;5.994;2023-04-26T00:57:21;10.13;;;2.22;;
59127;SDS011;44912;52.754;5.994;2023-04-26T00:59:48;9.07;;;2.10;;
59127;SDS011;44912;52.754;5.994;2023-04-26T01:02:13;8.43;;;2.30;;
59127;SDS011;44912;52.754;5.994;2023-04-26T01:04:40;7.32;;;2.00;;
59127;SDS011;44912;52.754;5.994;2023-04-26T01:07:06;9.90;;;2.10;;
59127;SDS011;44912;52.754;5.994;2023-04-26T01:09:32;7.25;;;2.30;;
59127;SDS011;44912;52.754;5.994;2023-04-26T01:11:58;5.90;;;2.15;;
59127;SDS011;44912;52.754;5.994;2023-04-26T01:14:25;9.90;;;2.35;;
59127;SDS011;44912;52.754;5.994;2023-04-26T01:16:51;7.25;;;2.50;;
59127;SDS011;44912;52.754;5.994;2023-04-26T01:19:17;7.20;;;2.28;;
59127;SDS011;44912;52.754;5.994;2023-04-26T01:21:43;8.75;;;2.50;;
59127;SDS011;44912;52.754;5.994;2023-04-26T01:24:09;6.80;;;2.15;;
59127;SDS011;44912;52.754;5.994;2023-04-26T01:26:36;5.00;;;2.30;;
59127;SDS011;44912;52.754;5.994;2023-04-26T01:29:18;12.93;;;2.78;;
59127;SDS011;44912;52.754;5.994;2023-04-26T01:31:45;5.95;;;2.40;;
59127;SDS011;44912;52.754;5.994;2023-04-26T01:34:11;6.53;;;2.33;;
59127;SDS011;44912;52.754;5.994;2023-04-26T01:36:37;9.18;;;2.20;;
59127;SDS011;44912;52.754;5.994;2023-04-26T01:39:03;7.40;;;2.22;;
59127;SDS011;44912;52.754;5.994;2023-04-26T01:41:29;8.85;;;2.53;;
59127;SDS011;44912;52.754;5.994;2023-04-26T01:43:54;6.43;;;2.30;;
59127;SDS011;44912;52.754;5.994;2023-04-26T01:46:20;10.70;;;2.38;;
59127;SDS011;44912;52.754;5.994;2023-04-26T01:48:46;10.13;;;2.58;;
59127;SDS011;44912;52.754;5.994;2023-04-26T01:51:12;7.25;;;2.60;;
59127;SDS011;44912;52.754;5.994;2023-04-26T01:53:37;8.82;;;2.85;;
59127;SDS011;44912;52.754;5.994;2023-04-26T01:56:03;9.73;;;3.15;;
59127;SDS011;44912;52.754;5.994;2023-04-26T01:58:30;6.00;;;2.83;;
59127;SDS011;44912;52.754;5.994;2023-04-26T02:00:55;9.18;;;3.20;;
59127;SDS011;44912;52.754;5.994;2023-04-26T02:03:28;8.88;;;3.17;;
59127;SDS011;44912;52.754;5.994;2023-04-26T02:05:54;7.25;;;3.60;;
59127;SDS011;44912;52.754;5.994;2023-04-26T02:08:19;9.60;;;3.00;;
59127;SDS011;44912;52.754;5.994;2023-04-26T02:10:45;9.88;;;2.92;;
59127;SDS011;44912;52.754;5.994;2023-04-26T02:13:10;9.70;;;3.20;;
59127;SDS011;44912;52.754;5.994;2023-04-26T02:15:36;11.13;;;3.10;;
59127;SDS011;44912;52.754;5.994;2023-04-26T02:18:01;8.55;;;3.47;;
59127;SDS011;44912;52.754;5.994;2023-04-26T02:20:27;11.55;;;3.60;;
59127;SDS011;44912;52.754;5.994;2023-04-26T02:22:53;8.80;;;2.95;;
59127;SDS011;44912;52.754;5.994;2023-04-26T02:25:19;8.65;;;2.90;;
59127;SDS011;44912;52.754;5.994;2023-04-26T02:27:45;8.50;;;3.05;;
59127;SDS011;44912;52.754;5.994;2023-04-26T02:30:11;7.10;;;2.55;;
59127;SDS011;44912;52.754;5.994;2023-04-26T02:32:37;12.25;;;3.83;;
59127;SDS011;44912;52.754;5.994;2023-04-26T02:35:02;9.90;;;3.97;;
59127;SDS011;44912;52.754;5.994;2023-04-26T02:37:29;9.02;;;3.15;;
59127;SDS011;44912;52.754;5.994;2023-04-26T02:39:56;12.32;;;4.07;;
59127;SDS011;44912;52.754;5.994;2023-04-26T02:42:21;8.93;;;2.55;;
59127;SDS011;44912;52.754;5.994;2023-04-26T02:44:47;8.38;;;3.28;;
59127;SDS011;44912;52.754;5.994;2023-04-26T02:47:12;8.55;;;3.40;;
59127;SDS011;44912;52.754;5.994;2023-04-26T02:49:38;7.75;;;2.80;;
59127;SDS011;44912;52.754;5.994;2023-04-26T02:52:03;7.30;;;2.65;;
59127;SDS011;44912;52.754;5.994;2023-04-26T02:54:29;9.05;;;2.92;;
59127;SDS011;44912;52.754;5.994;2023-04-26T02:56:55;9.10;;;2.70;;
59127;SDS011;44912;52.754;5.994;2023-04-26T02:59:22;10.90;;;2.88;;
59127;SDS011;44912;52.754;5.994;2023-04-26T03:01:47;7.60;;;2.60;;
59127;SDS011;44912;52.754;5.994;2023-04-26T03:04:13;10.82;;;2.42;;
59127;SDS011;44912;52.754;5.994;2023-04-26T03:06:39;7.88;;;2.33;;
59127;SDS011;44912;52.754;5.994;2023-04-26T03:09:05;6.00;;;2.08;;
59127;SDS011;44912;52.754;5.994;2023-04-26T03:11:31;7.88;;;2.45;;
59127;SDS011;44912;52.754;5.994;2023-04-26T03:13:56;6.85;;;2.10;;
59127;SDS011;44912;52.754;5.994;2023-04-26T03:16:22;6.38;;;1.75;;
59127;SDS011;44912;52.754;5.994;2023-04-26T03:18:48;5.35;;;1.80;;
59127;SDS011;44912;52.754;5.994;2023-04-26T03:21:13;6.72;;;1.80;;
59127;SDS011;44912;52.754;5.994;2023-04-26T03:23:39;7.13;;;1.60;;
59127;SDS011;44912;52.754;5.994;2023-04-26T03:26:05;5.47;;;1.80;;
59127;SDS011;44912;52.754;5.994;2023-04-26T03:28:31;6.90;;;1.50;;
59127;SDS011;44912;52.754;5.994;2023-04-26T03:30:56;8.88;;;1.60;;
59127;SDS011;44912;52.754;5.994;2023-04-26T03:33:22;4.18;;;1.85;;
59127;SDS011;44912;52.754;5.994;2023-04-26T03:35:47;6.22;;;2.00;;
59127;SDS011;44912;52.754;5.994;2023-04-26T03:38:13;5.78;;;1.95;;
59127;SDS011;44912;52.754;5.994;2023-04-26T03:40:39;4.82;;;1.80;;
59127;SDS011;44912;52.754;5.994;2023-04-26T03:43:04;4.60;;;1.70;;
59127;SDS011;44912;52.754;5.994;2023-04-26T03:45:30;7.78;;;1.80;;
59127;SDS011;44912;52.754;5.994;2023-04-26T03:47:55;6.32;;;1.90;;
59127;SDS011;44912;52.754;5.994;2023-04-26T03:50:21;5.07;;;1.50;;
59127;SDS011;44912;52.754;5.994;2023-04-26T03:52:46;7.05;;;2.00;;
59127;SDS011;44912;52.754;5.994;2023-04-26T03:55:12;6.13;;;2.08;;
59127;SDS011;44912;52.754;5.994;2023-04-26T03:57:38;5.05;;;1.70;;
59127;SDS011;44912;52.754;5.994;2023-04-26T04:00:04;6.25;;;1.90;;
59127;SDS011;44912;52.754;5.994;2023-04-26T04:02:37;5.00;;;1.63;;
59127;SDS011;44912;52.754;5.994;2023-04-26T04:05:03;6.72;;;2.30;;
59127;SDS011;44912;52.754;5.994;2023-04-26T04:07:29;5.93;;;1.85;;
59127;SDS011;44912;52.754;5.994;2023-04-26T04:09:57;5.78;;;2.03;;
59127;SDS011;44912;52.754;5.994;2023-04-26T04:12:23;8.38;;;2.17;;
59127;SDS011;44912;52.754;5.994;2023-04-26T04:14:48;4.75;;;2.40;;
59127;SDS011;44912;52.754;5.994;2023-04-26T04:17:14;7.22;;;2.38;;
59127;SDS011;44912;52.754;5.994;2023-04-26T04:19:40;4.97;;;2.10;;
59127;SDS011;44912;52.754;5.994;2023-04-26T04:22:05;6.05;;;2.05;;
59127;SDS011;44912;52.754;5.994;2023-04-26T04:24:31;4.25;;;2.00;;
59127;SDS011;44912;52.754;5.994;2023-04-26T04:26:56;8.50;;;2.22;;
59127;SDS011;44912;52.754;5.994;2023-04-26T04:29:22;4.32;;;2.28;;
59127;SDS011;44912;52.754;5.994;2023-04-26T04:31:48;5.78;;;2.50;;
59127;SDS011;44912;52.754;5.994;2023-04-26T04:34:13;9.82;;;3.33;;
59127;SDS011;44912;52.754;5.994;2023-04-26T04:36:41;8.38;;;3.20;;
59127;SDS011;44912;52.754;5.994;2023-04-26T04:39:07;7.70;;;3.10;;
59127;SDS011;44912;52.754;5.994;2023-04-26T04:41:37;9.93;;;3.80;;
59127;SDS011;44912;52.754;5.994;2023-04-26T04:44:04;11.15;;;2.85;;
59127;SDS011;44912;52.754;5.994;2023-04-26T04:46:29;9.15;;;3.28;;
59127;SDS011;44912;52.754;5.994;2023-04-26T04:48:55;10.63;;;2.90;;
59127;SDS011;44912;52.754;5.994;2023-04-26T04:51:21;10.68;;;3.17;;
59127;SDS011;44912;52.754;5.994;2023-04-26T04:53:46;7.63;;;3.20;;
59127;SDS011;44912;52.754;5.994;2023-04-26T04:56:12;10.15;;;3.35;;
59127;SDS011;44912;52.754;5.994;2023-04-26T04:58:38;9.20;;;3.28;;
59127;SDS011;44912;52.754;5.994;2023-04-26T05:01:04;8.82;;;3.10;;
59127;SDS011;44912;52.754;5.994;2023-04-26T05:03:30;8.15;;;2.67;;
59127;SDS011;44912;52.754;5.994;2023-04-26T05:05:58;9.35;;;2.90;;
59127;SDS011;44912;52.754;5.994;2023-04-26T05:08:24;8.35;;;2.92;;
59127;SDS011;44912;52.754;5.994;2023-04-26T05:10:50;7.95;;;2.80;;
59127;SDS011;44912;52.754;5.994;2023-04-26T05:13:15;7.55;;;3.00;;
59127;SDS011;44912;52.754;5.994;2023-04-26T05:15:41;7.35;;;2.90;;
59127;SDS011;44912;52.754;5.994;2023-04-26T05:18:07;5.82;;;2.70;;
59127;SDS011;44912;52.754;5.994;2023-04-26T05:20:32;9.45;;;2.55;;
59127;SDS011;44912;52.754;5.994;2023-04-26T05:22:58;6.25;;;2.72;;
59127;SDS011;44912;52.754;5.994;2023-04-26T05:25:23;10.43;;;2.85;;
59127;SDS011;44912;52.754;5.994;2023-04-26T05:27:49;9.65;;;2.92;;
59127;SDS011;44912;52.754;5.994;2023-04-26T05:30:15;6.95;;;3.05;;
59127;SDS011;44912;52.754;5.994;2023-04-26T05:32:41;8.85;;;3.05;;
59127;SDS011;44912;52.754;5.994;2023-04-26T05:35:07;7.60;;;3.03;;
59127;SDS011;44912;52.754;5.994;2023-04-26T05:37:33;8.80;;;3.17;;
59127;SDS011;44912;52.754;5.994;2023-04-26T05:39:59;7.35;;;3.35;;
59127;SDS011;44912;52.754;5.994;2023-04-26T05:42:25;15.65;;;7.28;;
59127;SDS011;44912;52.754;5.994;2023-04-26T05:44:55;28.80;;;15.25;;
59127;SDS011;44912;52.754;5.994;2023-04-26T05:47:22;11.00;;;4.15;;
59127;SDS011;44912;52.754;5.994;2023-04-26T05:49:48;7.32;;;2.45;;
59127;SDS011;44912;52.754;5.994;2023-04-26T05:52:13;6.03;;;2.08;;
59127;SDS011;44912;52.754;5.994;2023-04-26T05:54:39;6.20;;;2.10;;
59127;SDS011;44912;52.754;5.994;2023-04-26T05:57:05;5.88;;;2.10;;
59127;SDS011;44912;52.754;5.994;2023-04-26T05:59:30;6.53;;;2.03;;
59127;SDS011;44912;52.754;5.994;2023-04-26T06:02:00;6.07;;;2.10;;
59127;SDS011;44912;52.754;5.994;2023-04-26T06:04:26;6.63;;;2.28;;
59127;SDS011;44912;52.754;5.994;2023-04-26T06:06:51;6.00;;;2.13;;
59127;SDS011;44912;52.754;5.994;2023-04-26T06:09:17;7.40;;;2.28;;
59127;SDS011;44912;52.754;5.994;2023-04-26T06:11:43;7.25;;;2.30;;
59127;SDS011;44912;52.754;5.994;2023-04-26T06:14:08;7.95;;;2.20;;
59127;SDS011;44912;52.754;5.994;2023-04-26T06:16:34;6.85;;;2.25;;
59127;SDS011;44912;52.754;5.994;2023-04-26T06:18:59;5.13;;;2.10;;
59127;SDS011;44912;52.754;5.994;2023-04-26T06:21:25;6.47;;;2.25;;
59127;SDS011;44912;52.754;5.994;2023-04-26T06:23:51;8.50;;;2.03;;
59127;SDS011;44912;52.754;5.994;2023-04-26T06:26:16;5.30;;;2.00;;
59127;SDS011;44912;52.754;5.994;2023-04-26T06:28:42;7.03;;;1.85;;
59127;SDS011;44912;52.754;5.994;2023-04-26T06:31:08;5.35;;;1.88;;
59127;SDS011;44912;52.754;5.994;2023-04-26T06:33:33;4.78;;;1.73;;
59127;SDS011;44912;52.754;5.994;2023-04-26T06:35:59;4.72;;;1.90;;
59127;SDS011;44912;52.754;5.994;2023-04-26T06:38:24;5.43;;;1.83;;
59127;SDS011;44912;52.754;5.994;2023-04-26T06:40:50;4.70;;;1.80;;
59127;SDS011;44912;52.754;5.994;2023-04-26T06:43:15;6.47;;;1.83;;
59127;SDS011;44912;52.754;5.994;2023-04-26T06:45:42;5.10;;;1.65;;
59127;SDS011;44912;52.754;5.994;2023-04-26T06:48:07;8.40;;;1.90;;
59127;SDS011;44912;52.754;5.994;2023-04-26T06:50:36;4.32;;;1.75;;
59127;SDS011;44912;52.754;5.994;2023-04-26T06:53:03;6.72;;;1.77;;
59127;SDS011;44912;52.754;5.994;2023-04-26T06:55:28;10.73;;;4.35;;
59127;SDS011;44912;52.754;5.994;2023-04-26T06:57:55;7.13;;;2.10;;
59127;SDS011;44912;52.754;5.994;2023-04-26T07:00:21;4.88;;;2.17;;
59127;SDS011;44912;52.754;5.994;2023-04-26T07:02:46;5.70;;;2.28;;
59127;SDS011;44912;52.754;5.994;2023-04-26T07:05:12;6.38;;;2.05;;
59127;SDS011;44912;52.754;5.994;2023-04-26T07:07:39;7.88;;;2.40;;
59127;SDS011;44912;52.754;5.994;2023-04-26T07:10:05;11.55;;;4.18;;
59127;SDS011;44912;52.754;5.994;2023-04-26T07:12:32;11.90;;;4.32;;
59127;SDS011;44912;52.754;5.994;2023-04-26T07:14:57;8.18;;;2.20;;
59127;SDS011;44912;52.754;5.994;2023-04-26T07:17:25;6.63;;;1.90;;
59127;SDS011;44912;52.754;5.994;2023-04-26T07:19:51;6.07;;;2.20;;
59127;SDS011;44912;52.754;5.994;2023-04-26T07:22:16;6.47;;;2.13;;
59127;SDS011;44912;52.754;5.994;2023-04-26T07:24:42;6.47;;;2.08;;
59127;SDS011;44912;52.754;5.994;2023-04-26T07:27:08;7.13;;;2.30;;
59127;SDS011;44912;52.754;5.994;2023-04-26T07:29:34;8.35;;;2.00;;
59127;SDS011;44912;52.754;5.994;2023-04-26T07:31:59;8.00;;;2.60;;
59127;SDS011;44912;52.754;5.994;2023-04-26T07:34:25;9.82;;;3.10;;
59127;SDS011;44912;52.754;5.994;2023-04-26T07:37:01;9.25;;;3.47;;
59127;SDS011;44912;52.754;5.994;2023-04-26T07:39:27;11.50;;;4.47;;
59127;SDS011;44912;52.754;5.994;2023-04-26T07:41:52;12.35;;;5.60;;
59127;SDS011;44912;52.754;5.994;2023-04-26T07:44:19;13.45;;;6.47;;
59127;SDS011;44912;52.754;5.994;2023-04-26T07:46:47;10.40;;;2.90;;
59127;SDS011;44912;52.754;5.994;2023-04-26T07:49:16;7.65;;;1.85;;
59127;SDS011;44912;52.754;5.994;2023-04-26T07:51:42;5.28;;;1.60;;
59127;SDS011;44912;52.754;5.994;2023-04-26T07:54:09;6.57;;;1.88;;
59127;SDS011;44912;52.754;5.994;2023-04-26T07:56:35;5.60;;;1.90;;
59127;SDS011;44912;52.754;5.994;2023-04-26T07:59:00;8.98;;;1.90;;
59127;SDS011;44912;52.754;5.994;2023-04-26T08:01:26;10.50;;;2.65;;
59127;SDS011;44912;52.754;5.994;2023-04-26T08:03:52;8.57;;;2.22;;
59127;SDS011;44912;52.754;5.994;2023-04-26T08:06:18;8.88;;;2.13;;
59127;SDS011;44912;52.754;5.994;2023-04-26T08:08:44;6.68;;;2.20;;
59127;SDS011;44912;52.754;5.994;2023-04-26T08:11:13;9.05;;;2.65;;
59127;SDS011;44912;52.754;5.994;2023-04-26T08:13:38;8.52;;;2.40;;
59127;SDS011;44912;52.754;5.994;2023-04-26T08:16:04;20.23;;;7.85;;
59127;SDS011;44912;52.754;5.994;2023-04-26T08:18:30;22.25;;;8.27;;
59127;SDS011;44912;52.754;5.994;2023-04-26T08:20:56;6.32;;;1.88;;
59127;SDS011;44912;52.754;5.994;2023-04-26T08:23:21;6.82;;;1.77;;
59127;SDS011;44912;52.754;5.994;2023-04-26T08:25:47;7.43;;;1.77;;
59127;SDS011;44912;52.754;5.994;2023-04-26T08:28:13;6.53;;;2.03;;
59127;SDS011;44912;52.754;5.994;2023-04-26T08:30:39;9.48;;;2.72;;
59127;SDS011;44912;52.754;5.994;2023-04-26T08:33:05;8.82;;;2.35;;
59127;SDS011;44912;52.754;5.994;2023-04-26T08:35:31;15.82;;;5.00;;
59127;SDS011;44912;52.754;5.994;2023-04-26T08:37:57;10.00;;;2.83;;
59127;SDS011;44912;52.754;5.994;2023-04-26T08:40:23;11.25;;;2.45;;
59127;SDS011;44912;52.754;5.994;2023-04-26T08:42:49;11.02;;;3.03;;
59127;SDS011;44912;52.754;5.994;2023-04-26T08:45:16;8.30;;;2.67;;
59127;SDS011;44912;52.754;5.994;2023-04-26T08:47:43;7.40;;;2.00;;
59127;SDS011;44912;52.754;5.994;2023-04-26T08:50:11;9.27;;;2.05;;
59127;SDS011;44912;52.754;5.994;2023-04-26T08:52:39;6.78;;;2.10;;
59127;SDS011;44912;52.754;5.994;2023-04-26T08:55:06;6.50;;;2.33;;
59127;SDS011;44912;52.754;5.994;2023-04-26T08:57:34;17.35;;;4.95;;
59127;SDS011;44912;52.754;5.994;2023-04-26T09:00:03;8.80;;;2.90;;
59127;SDS011;44912;52.754;5.994;2023-04-26T09:02:29;10.63;;;3.53;;
59127;SDS011;44912;52.754;5.994;2023-04-26T09:04:55;13.15;;;4.07;;
59127;SDS011;44912;52.754;5.994;2023-04-26T09:10:26;9.43;;;2.58;;
59127;SDS011;44912;52.754;5.994;2023-04-26T09:12:52;5.53;;;2.10;;
59127;SDS011;44912;52.754;5.994;2023-04-26T09:15:19;7.78;;;2.28;;
59127;SDS011;44912;52.754;5.994;2023-04-26T09:17:46;9.55;;;2.58;;
59127;SDS011;44912;52.754;5.994;2023-04-26T09:20:17;6.82;;;1.70;;
59127;SDS011;44912;52.754;5.994;2023-04-26T09:22:50;7.80;;;1.98;;
59127;SDS011;44912;52.754;5.994;2023-04-26T09:25:18;13.85;;;2.85;;
59127;SDS011;44912;52.754;5.994;2023-04-26T09:27:51;4.40;;;1.70;;
59127;SDS011;44912;52.754;5.994;2023-04-26T09:30:17;6.25;;;1.85;;
59127;SDS011;44912;52.754;5.994;2023-04-26T09:32:55;9.70;;;3.13;;
59127;SDS011;44912;52.754;5.994;2023-04-26T09:35:28;12.48;;;3.90;;
59127;SDS011;44912;52.754;5.994;2023-04-26T09:40:29;9.23;;;1.73;;
59127;SDS011;44912;52.754;5.994;2023-04-26T09:45:23;6.95;;;2.40;;
59127;SDS011;44912;52.754;5.994;2023-04-26T09:47:50;7.78;;;2.60;;
59127;SDS011;44912;52.754;5.994;2023-04-26T09:50:29;6.20;;;1.85;;
59127;SDS011;44912;52.754;5.994;2023-04-26T09:52:55;4.43;;;1.52;;
59127;SDS011;44912;52.754;5.994;2023-04-26T09:55:25;8.52;;;1.95;;
59127;SDS011;44912;52.754;5.994;2023-04-26T09:57:52;6.38;;;1.75;;
59127;SDS011;44912;52.754;5.994;2023-04-26T10:00:18;6.50;;;1.77;;
59127;SDS011;44912;52.754;5.994;2023-04-26T10:02:45;5.05;;;1.55;;
59127;SDS011;44912;52.754;5.994;2023-04-26T10:05:11;6.72;;;1.80;;
59127;SDS011;44912;52.754;5.994;2023-04-26T10:07:37;10.05;;;2.28;;
59127;SDS011;44912;52.754;5.994;2023-04-26T10:10:05;4.45;;;1.40;;
59127;SDS011;44912;52.754;5.994;2023-04-26T10:12:32;6.68;;;1.52;;
59127;SDS011;44912;52.754;5.994;2023-04-26T10:14:58;11.82;;;2.20;;
59127;SDS011;44912;52.754;5.994;2023-04-26T10:17:24;6.18;;;1.90;;
59127;SDS011;44912;52.754;5.994;2023-04-26T10:19:54;6.47;;;1.52;;
59127;SDS011;44912;52.754;5.994;2023-04-26T10:22:26;5.70;;;1.40;;
59127;SDS011;44912;52.754;5.994;2023-04-26T10:24:54;5.20;;;1.25;;
59127;SDS011;44912;52.754;5.994;2023-04-26T10:30:08;6.57;;;2.22;;
59127;SDS011;44912;52.754;5.994;2023-04-26T10:35:17;5.97;;;1.85;;
59127;SDS011;44912;52.754;5.994;2023-04-26T10:40:37;4.55;;;1.40;;
59127;SDS011;44912;52.754;5.994;2023-04-26T10:45:36;8.77;;;1.73;;
59127;SDS011;44912;52.754;5.994;2023-04-26T10:48:22;5.00;;;1.55;;
59127;SDS011;44912;52.754;5.994;2023-04-26T10:53:25;6.68;;;1.85;;
59127;SDS011;44912;52.754;5.994;2023-04-26T10:55:52;6.40;;;1.70;;
59127;SDS011;44912;52.754;5.994;2023-04-26T10:58:25;7.38;;;1.90;;
59127;SDS011;44912;52.754;5.994;2023-04-26T11:01:08;5.20;;;1.70;;
59127;SDS011;44912;52.754;5.994;2023-04-26T11:03:43;5.50;;;1.35;;
59127;SDS011;44912;52.754;5.994;2023-04-26T11:06:25;7.38;;;1.30;;
59127;SDS011;44912;52.754;5.994;2023-04-26T11:12:16;5.95;;;1.80;;
59127;SDS011;44912;52.754;5.994;2023-04-26T11:14:42;8.02;;;2.08;;
59127;SDS011;44912;52.754;5.994;2023-04-26T11:17:08;8.70;;;3.53;;
59127;SDS011;44912;52.754;5.994;2023-04-26T11:19:34;7.82;;;2.67;;
59127;SDS011;44912;52.754;5.994;2023-04-26T11:22:00;7.93;;;3.13;;
59127;SDS011;44912;52.754;5.994;2023-04-26T11:24:27;10.88;;;4.30;;
59127;SDS011;44912;52.754;5.994;2023-04-26T11:26:55;11.93;;;3.92;;
59127;SDS011;44912;52.754;5.994;2023-04-26T11:29:22;11.50;;;4.03;;
59127;SDS011;44912;52.754;5.994;2023-04-26T11:31:54;8.13;;;2.78;;
59127;SDS011;44912;52.754;5.994;2023-04-26T11:34:22;10.15;;;2.88;;
59127;SDS011;44912;52.754;5.994;2023-04-26T11:36:57;9.68;;;2.28;;
59127;SDS011;44912;52.754;5.994;2023-04-26T11:39:23;8.10;;;2.10;;
59127;SDS011;44912;52.754;5.994;2023-04-26T11:41:49;4.78;;;1.40;;
59127;SDS011;44912;52.754;5.994;2023-04-26T11:44:18;4.72;;;1.77;;
59127;SDS011;44912;52.754;5.994;2023-04-26T11:46:47;6.60;;;1.70;;
59127;SDS011;44912;52.754;5.994;2023-04-26T11:49:13;6.00;;;1.65;;
59127;SDS011;44912;52.754;5.994;2023-04-26T11:51:40;6.20;;;1.70;;
59127;SDS011;44912;52.754;5.994;2023-04-26T11:54:06;9.75;;;2.67;;
59127;SDS011;44912;52.754;5.994;2023-04-26T11:56:31;7.75;;;2.38;;
59127;SDS011;44912;52.754;5.994;2023-04-26T11:58:57;21.30;;;10.45;;
59127;SDS011;44912;52.754;5.994;2023-04-26T12:03:51;28.70;;;10.77;;
59127;SDS011;44912;52.754;5.994;2023-04-26T12:06:30;28.60;;;10.90;;
59127;SDS011;44912;52.754;5.994;2023-04-26T12:09:05;17.27;;;6.90;;
59127;SDS011;44912;52.754;5.994;2023-04-26T12:11:33;9.63;;;2.67;;
59127;SDS011;44912;52.754;5.994;2023-04-26T12:13:59;11.43;;;3.13;;
59127;SDS011;44912;52.754;5.994;2023-04-26T12:16:25;12.23;;;4.38;;
59127;SDS011;44912;52.754;5.994;2023-04-26T12:18:51;13.88;;;5.32;;
59127;SDS011;44912;52.754;5.994;2023-04-26T12:21:17;13.45;;;5.47;;
59127;SDS011;44912;52.754;5.994;2023-04-26T12:23:43;22.48;;;9.93;;
59127;SDS011;44912;52.754;5.994;2023-04-26T12:26:12;21.60;;;6.57;;
59127;SDS011;44912;52.754;5.994;2023-04-26T12:28:37;19.05;;;6.15;;
59127;SDS011;44912;52.754;5.994;2023-04-26T12:31:03;17.83;;;6.65;;
59127;SDS011;44912;52.754;5.994;2023-04-26T12:33:30;13.93;;;4.68;;
59127;SDS011;44912;52.754;5.994;2023-04-26T12:35:57;11.18;;;2.78;;
59127;SDS011;44912;52.754;5.994;2023-04-26T12:38:29;7.07;;;2.60;;
59127;SDS011;44912;52.754;5.994;2023-04-26T12:40:56;8.68;;;2.90;;
59127;SDS011;44912;52.754;5.994;2023-04-26T12:43:21;10.75;;;3.50;;
59127;SDS011;44912;52.754;5.994;2023-04-26T12:45:50;17.83;;;6.38;;
59127;SDS011;44912;52.754;5.994;2023-04-26T12:48:15;8.88;;;3.25;;
59127;SDS011;44912;52.754;5.994;2023-04-26T12:50:41;8.05;;;2.60;;
59127;SDS011;44912;52.754;5.994;2023-04-26T12:53:07;9.20;;;3.15;;
59127;SDS011;44912;52.754;5.994;2023-04-26T12:55:32;10.85;;;3.67;;
59127;SDS011;44912;52.754;5.994;2023-04-26T12:57:58;9.40;;;3.25;;
59127;SDS011;44912;52.754;5.994;2023-04-26T13:00:23;9.93;;;3.00;;
59127;SDS011;44912;52.754;5.994;2023-04-26T13:02:49;10.90;;;4.20;;
59127;SDS011;44912;52.754;5.994;2023-04-26T13:05:15;9.35;;;3.05;;
59127;SDS011;44912;52.754;5.994;2023-04-26T13:07:42;11.10;;;3.50;;
59127;SDS011;44912;52.754;5.994;2023-04-26T13:10:08;6.25;;;2.55;;
59127;SDS011;44912;52.754;5.994;2023-04-26T13:12:35;9.80;;;2.50;;
59127;SDS011;44912;52.754;5.994;2023-04-26T13:15:03;8.10;;;2.60;;
59127;SDS011;44912;52.754;5.994;2023-04-26T13:17:30;13.18;;;5.25;;
59127;SDS011;44912;52.754;5.994;2023-04-26T13:19:55;16.63;;;5.25;;
59127;SDS011;44912;52.754;5.994;2023-04-26T13:22:21;11.18;;;3.30;;
59127;SDS011;44912;52.754;5.994;2023-04-26T13:24:46;9.95;;;4.00;;
59127;SDS011;44912;52.754;5.994;2023-04-26T13:27:12;16.98;;;6.50;;
59127;SDS011;44912;52.754;5.994;2023-04-26T13:29:38;25.48;;;11.68;;
59127;SDS011;44912;52.754;5.994;2023-04-26T13:32:04;22.85;;;8.65;;
59127;SDS011;44912;52.754;5.994;2023-04-26T13:34:30;13.05;;;5.07;;
59127;SDS011;44912;52.754;5.994;2023-04-26T13:36:56;6.63;;;3.13;;
59127;SDS011;44912;52.754;5.994;2023-04-26T13:39:22;8.85;;;3.40;;
59127;SDS011;44912;52.754;5.994;2023-04-26T13:41:50;8.35;;;2.33;;
59127;SDS011;44912;52.754;5.994;2023-04-26T13:44:16;7.80;;;2.20;;
59127;SDS011;44912;52.754;5.994;2023-04-26T13:46:43;9.18;;;3.20;;
59127;SDS011;44912;52.754;5.994;2023-04-26T13:49:09;7.40;;;2.22;;
59127;SDS011;44912;52.754;5.994;2023-04-26T13:51:35;8.88;;;2.90;;
59127;SDS011;44912;52.754;5.994;2023-04-26T13:54:01;11.25;;;3.58;;
59127;SDS011;44912;52.754;5.994;2023-04-26T13:56:27;24.30;;;10.50;;
59127;SDS011;44912;52.754;5.994;2023-04-26T13:58:54;15.48;;;5.97;;
59127;SDS011;44912;52.754;5.994;2023-04-26T14:01:22;9.48;;;2.40;;
59127;SDS011;44912;52.754;5.994;2023-04-26T14:03:48;8.13;;;2.42;;
59127;SDS011;44912;52.754;5.994;2023-04-26T14:06:13;5.43;;;2.00;;
59127;SDS011;44912;52.754;5.994;2023-04-26T14:08:39;9.63;;;2.72;;
59127;SDS011;44912;52.754;5.994;2023-04-26T14:11:05;9.20;;;2.22;;
59127;SDS011;44912;52.754;5.994;2023-04-26T14:13:31;6.40;;;2.38;;
59127;SDS011;44912;52.754;5.994;2023-04-26T14:15:57;6.10;;;2.30;;
59127;SDS011;44912;52.754;5.994;2023-04-26T14:18:24;6.97;;;2.30;;
59127;SDS011;44912;52.754;5.994;2023-04-26T14:20:49;10.63;;;2.80;;
59127;SDS011;44912;52.754;5.994;2023-04-26T14:23:15;8.82;;;2.55;;
59127;SDS011;44912;52.754;5.994;2023-04-26T14:25:41;10.93;;;3.00;;
59127;SDS011;44912;52.754;5.994;2023-04-26T14:28:06;8.50;;;2.38;;
59127;SDS011;44912;52.754;5.994;2023-04-26T14:30:32;6.78;;;2.20;;
59127;SDS011;44912;52.754;5.994;2023-04-26T14:32:58;8.88;;;2.72;;
59127;SDS011;44912;52.754;5.994;2023-04-26T14:35:23;11.50;;;2.97;;
59127;SDS011;44912;52.754;5.994;2023-04-26T14:37:49;7.68;;;2.35;;
59127;SDS011;44912;52.754;5.994;2023-04-26T14:40:15;6.55;;;2.10;;
59127;SDS011;44912;52.754;5.994;2023-04-26T14:42:40;7.35;;;2.40;;
59127;SDS011;44912;52.754;5.994;2023-04-26T14:45:09;6.68;;;2.40;;
59127;SDS011;44912;52.754;5.994;2023-04-26T14:47:36;7.28;;;2.60;;
59127;SDS011;44912;52.754;5.994;2023-04-26T14:50:02;6.93;;;1.80;;
59127;SDS011;44912;52.754;5.994;2023-04-26T14:52:28;10.20;;;3.25;;
59127;SDS011;44912;52.754;5.994;2023-04-26T14:54:55;8.93;;;3.03;;
59127;SDS011;44912;52.754;5.994;2023-04-26T14:57:21;6.18;;;1.90;;
59127;SDS011;44912;52.754;5.994;2023-04-26T14:59:47;7.20;;;1.98;;
59127;SDS011;44912;52.754;5.994;2023-04-26T15:02:13;5.75;;;2.05;;
59127;SDS011;44912;52.754;5.994;2023-04-26T15:04:38;6.07;;;2.53;;
59127;SDS011;44912;52.754;5.994;2023-04-26T15:07:04;7.97;;;2.20;;
59127;SDS011;44912;52.754;5.994;2023-04-26T15:09:30;6.88;;;2.00;;